createdAt,value
2022-12-22T00:01:38.953Z,8.40
2022-12-22T00:04:29.070Z,8.40
2022-12-22T00:07:17.003Z,8.40
2022-12-22T00:10:02.409Z,8.40
2022-12-22T00:12:49.390Z,8.40
2022-12-22T00:15:38.380Z,8.40
2022-12-22T00:18:25.121Z,8.40
2022-12-22T00:21:11.283Z,8.30
2022-12-22T00:23:56.792Z,8.30
2022-12-22T00:27:11.804Z,8.30
2022-12-22T00:30:00.522Z,8.10
2022-12-22T00:32:53.835Z,8.30
2022-12-22T00:35:43.670Z,8.40
2022-12-22T00:38:35.371Z,8.20
2022-12-22T00:41:23.605Z,8.20
2022-12-22T00:44:09.792Z,8.30
2022-12-22T00:46:58.554Z,8.20
2022-12-22T00:49:47.883Z,8.10
2022-12-22T00:52:37.805Z,8.20
2022-12-22T00:55:32.171Z,8.20
2022-12-22T00:58:21.944Z,8.20
2022-12-22T01:01:17.049Z,8.20
2022-12-22T01:04:03.345Z,8.10
2022-12-22T01:06:56.230Z,8.20
2022-12-22T01:09:46.255Z,8.20
2022-12-22T01:12:34.870Z,8.20
2022-12-22T01:15:21.080Z,8.10
2022-12-22T01:18:09.799Z,8.10
2022-12-22T01:20:55.627Z,8.20
2022-12-22T01:23:43.201Z,8.20
2022-12-22T01:26:30.614Z,8.20
2022-12-22T01:29:16.212Z,8.20
2022-12-22T01:32:01.912Z,8.20
2022-12-22T01:34:48.101Z,8.20
2022-12-22T01:37:33.894Z,8.30
2022-12-22T01:40:20.951Z,8.30
2022-12-22T01:43:06.809Z,8.40
2022-12-22T01:45:56.297Z,8.40
2022-12-22T01:48:48.559Z,8.40
2022-12-22T01:51:38.403Z,8.40
2022-12-22T01:54:28.280Z,8.40
2022-12-22T01:57:22.084Z,8.50
2022-12-22T02:00:08.025Z,8.60
2022-12-22T02:02:56.512Z,8.50
2022-12-22T02:05:42.334Z,8.50
2022-12-22T02:08:39.835Z,8.50
2022-12-22T02:11:41.735Z,8.60
2022-12-22T02:14:39.105Z,8.70
2022-12-22T02:17:32.478Z,8.80
2022-12-22T02:20:57.409Z,8.80
2022-12-22T02:24:21.488Z,8.80
2022-12-22T02:27:13.149Z,8.70
2022-12-22T02:30:01.999Z,8.90
2022-12-22T02:32:52.893Z,8.80
2022-12-22T02:35:38.633Z,8.90
2022-12-22T02:38:31.880Z,9.00
2022-12-22T02:41:32.009Z,8.90
2022-12-22T02:44:36.253Z,8.90
2022-12-22T02:47:27.631Z,8.80
2022-12-22T02:50:16.902Z,8.80
2022-12-22T02:53:06.329Z,8.90
2022-12-22T02:55:52.859Z,9.00
2022-12-22T02:58:39.104Z,9.00
2022-12-22T03:01:27.006Z,9.00
2022-12-22T03:04:12.404Z,9.00
2022-12-22T03:06:57.871Z,8.90
2022-12-22T03:09:43.705Z,8.90
2022-12-22T03:12:29.099Z,8.80
2022-12-22T03:15:14.585Z,8.80
2022-12-22T03:18:04.630Z,8.80
2022-12-22T03:20:50.296Z,8.90
2022-12-22T03:23:35.866Z,9.00
2022-12-22T03:26:04.051Z,8.90
2022-12-22T03:28:32.274Z,8.80
2022-12-22T03:31:02.381Z,8.90
2022-12-22T03:33:33.688Z,8.90
2022-12-22T03:36:02.207Z,8.90
2022-12-22T03:38:31.077Z,8.90
2022-12-22T03:40:59.280Z,8.90
2022-12-22T03:43:45.273Z,8.90
2022-12-22T03:46:33.788Z,8.80
2022-12-22T03:49:11.549Z,9.00
2022-12-22T03:51:43.825Z,8.80
2022-12-22T03:54:14.820Z,8.90
2022-12-22T03:56:43.774Z,8.90
2022-12-22T03:59:12.754Z,8.90
2022-12-22T04:01:43.472Z,8.90
2022-12-22T04:04:14.099Z,9.00
2022-12-22T04:06:42.680Z,8.90
2022-12-22T04:09:11.315Z,8.90
2022-12-22T04:11:57.245Z,8.90
2022-12-22T04:14:33.143Z,8.90
2022-12-22T04:17:02.669Z,9.00
2022-12-22T04:19:33.028Z,9.10
2022-12-22T04:22:01.269Z,9.00
2022-12-22T04:24:29.767Z,9.00
2022-12-22T04:26:57.934Z,9.00
2022-12-22T04:29:26.188Z,9.00
2022-12-22T04:31:54.764Z,9.00
2022-12-22T04:34:23.160Z,9.00
2022-12-22T04:36:52.650Z,9.00
2022-12-22T04:39:20.813Z,8.90
2022-12-22T04:41:51.866Z,9.00
2022-12-22T04:44:20.049Z,8.90
2022-12-22T04:46:48.552Z,9.00
2022-12-22T04:49:16.789Z,9.00
2022-12-22T04:51:44.978Z,8.90
2022-12-22T04:54:14.566Z,8.90
2022-12-22T04:56:42.919Z,8.90
2022-12-22T04:59:11.375Z,8.90
2022-12-22T05:01:39.662Z,8.90
2022-12-22T05:04:07.846Z,8.90
2022-12-22T05:06:36.203Z,9.00
2022-12-22T05:09:11.616Z,9.00
2022-12-22T05:11:44.253Z,9.00
2022-12-22T05:14:12.403Z,9.00
2022-12-22T05:16:43.626Z,9.20
2022-12-22T05:19:15.715Z,9.00
2022-12-22T05:21:43.865Z,9.10
2022-12-22T05:24:11.989Z,9.20
2022-12-22T05:26:41.758Z,9.10
2022-12-22T05:29:11.992Z,9.10
2022-12-22T05:31:46.756Z,9.10
2022-12-22T05:34:15.505Z,9.10
2022-12-22T05:36:43.817Z,9.00
2022-12-22T05:39:11.977Z,9.10
2022-12-22T05:41:41.929Z,9.10
2022-12-22T05:44:10.528Z,9.10
2022-12-22T05:46:41.385Z,9.10
2022-12-22T05:49:10.295Z,9.10
2022-12-22T05:51:38.446Z,9.20
2022-12-22T05:54:06.516Z,9.10
2022-12-22T05:56:34.873Z,9.10
2022-12-22T05:59:04.811Z,9.20
2022-12-22T06:01:33.084Z,9.20
2022-12-22T06:04:01.518Z,9.10
2022-12-22T06:06:29.866Z,9.10
2022-12-22T06:08:58.437Z,9.10
2022-12-22T06:11:26.520Z,9.10
2022-12-22T06:13:54.663Z,9.10
2022-12-22T06:16:24.981Z,9.10
2022-12-22T06:18:53.334Z,9.10
2022-12-22T06:21:23.961Z,9.10
2022-12-22T06:23:54.984Z,9.20
2022-12-22T06:26:23.261Z,9.10
2022-12-22T06:28:51.384Z,9.20
2022-12-22T06:31:19.741Z,9.20
2022-12-22T06:33:49.362Z,9.20
2022-12-22T06:36:19.925Z,9.10
2022-12-22T06:38:48.135Z,9.20
2022-12-22T06:41:36.235Z,9.20
2022-12-22T06:44:03.349Z,9.20
2022-12-22T06:46:32.325Z,9.20
2022-12-22T06:49:07.413Z,9.20
2022-12-22T06:51:35.582Z,9.20
2022-12-22T06:54:03.680Z,9.30
2022-12-22T06:56:32.007Z,9.20
2022-12-22T06:59:01.591Z,9.30
2022-12-22T07:01:31.732Z,9.30
2022-12-22T07:04:07.240Z,9.30
2022-12-22T07:06:36.992Z,9.30
2022-12-22T07:09:11.013Z,9.30
2022-12-22T07:11:39.431Z,9.30
2022-12-22T07:14:08.873Z,9.60
2022-12-22T07:16:39.741Z,9.30
2022-12-22T07:19:09.568Z,9.30
2022-12-22T07:21:40.339Z,9.30
2022-12-22T07:24:12.318Z,9.40
2022-12-22T07:26:40.556Z,9.30
2022-12-22T07:29:08.695Z,9.40
2022-12-22T07:31:37.186Z,9.40
2022-12-22T07:34:05.760Z,9.40
2022-12-22T07:36:35.592Z,9.40
2022-12-22T07:39:03.842Z,9.40
2022-12-22T07:41:49.248Z,9.40
2022-12-22T07:44:17.328Z,9.40
2022-12-22T07:46:45.814Z,9.30
2022-12-22T07:49:31.930Z,9.40
2022-12-22T07:52:01.732Z,9.40
2022-12-22T07:54:30.068Z,9.40
2022-12-22T07:56:58.422Z,9.40
2022-12-22T07:59:29.461Z,9.40
2022-12-22T08:01:57.888Z,9.30
2022-12-22T08:04:26.471Z,9.40
2022-12-22T08:06:54.662Z,9.40
2022-12-22T08:09:27.389Z,9.40
2022-12-22T08:11:55.592Z,9.30
2022-12-22T08:14:25.782Z,9.30
2022-12-22T08:16:54.505Z,9.30
2022-12-22T08:19:22.925Z,9.40
2022-12-22T08:21:53.139Z,9.30
2022-12-22T08:24:23.225Z,9.30
2022-12-22T08:26:56.857Z,9.30
2022-12-22T08:29:28.270Z,9.30
2022-12-22T08:31:56.743Z,9.20
2022-12-22T08:34:26.387Z,9.30
2022-12-22T08:36:57.840Z,9.30
2022-12-22T08:39:29.915Z,9.30
2022-12-22T08:42:02.036Z,9.30
2022-12-22T08:44:31.424Z,9.30
2022-12-22T08:47:01.143Z,9.30
2022-12-22T08:49:29.554Z,9.30
2022-12-22T08:51:57.885Z,9.30
2022-12-22T08:54:30.782Z,9.30
2022-12-22T08:56:59.834Z,9.30
2022-12-22T08:59:28.171Z,9.30
2022-12-22T09:01:56.487Z,9.30
2022-12-22T09:04:25.653Z,9.30
2022-12-22T09:06:54.621Z,9.30
2022-12-22T09:09:23.205Z,9.30
2022-12-22T09:11:53.195Z,9.30
2022-12-22T09:14:21.788Z,9.30
2022-12-22T09:16:50.555Z,9.30
2022-12-22T09:19:19.605Z,9.40
2022-12-22T09:21:48.173Z,9.20
2022-12-22T09:24:17.507Z,9.40
2022-12-22T09:26:45.590Z,9.40
2022-12-22T09:29:17.084Z,9.40
2022-12-22T09:31:46.137Z,9.40
2022-12-22T09:34:17.936Z,9.40
2022-12-22T09:36:50.367Z,9.40
2022-12-22T09:39:25.018Z,9.40
2022-12-22T09:41:59.296Z,9.40
2022-12-22T09:44:34.478Z,9.30
2022-12-22T09:47:11.353Z,9.40
2022-12-22T09:49:39.691Z,9.40
2022-12-22T09:52:32.165Z,9.40
2022-12-22T09:55:00.672Z,9.40
2022-12-22T09:57:33.919Z,9.50
2022-12-22T10:00:16.661Z,9.50
2022-12-22T10:02:55.601Z,9.60
2022-12-22T10:05:38.369Z,9.70
2022-12-22T10:08:12.835Z,9.80
2022-12-22T10:10:41.775Z,9.80
2022-12-22T10:13:21.489Z,10.00
2022-12-22T10:15:52.156Z,9.90
2022-12-22T10:18:21.933Z,10.00
2022-12-22T10:21:11.283Z,9.90
2022-12-22T10:23:42.038Z,10.00
2022-12-22T10:26:30.730Z,10.00
2022-12-22T10:29:02.452Z,10.00
2022-12-22T10:31:34.122Z,10.00
2022-12-22T10:34:13.747Z,10.00
2022-12-22T10:36:47.904Z,10.00
2022-12-22T10:39:22.488Z,10.00
2022-12-22T10:41:52.884Z,10.00
2022-12-22T10:44:27.274Z,9.90
2022-12-22T10:46:58.937Z,10.00
2022-12-22T10:49:31.588Z,9.90
2022-12-22T10:52:12.810Z,9.90
2022-12-22T10:54:42.769Z,9.90
2022-12-22T10:57:33.429Z,10.00
2022-12-22T11:00:05.247Z,10.00
2022-12-22T11:02:39.669Z,10.00
2022-12-22T11:05:10.064Z,10.00
2022-12-22T11:07:40.302Z,10.00
2022-12-22T11:10:21.101Z,10.00
2022-12-22T11:13:04.094Z,10.00
2022-12-22T11:15:38.084Z,10.00
2022-12-22T11:18:22.124Z,10.00
2022-12-22T11:21:00.375Z,10.00
2022-12-22T11:23:35.124Z,10.00
2022-12-22T11:26:12.787Z,10.00
2022-12-22T11:28:57.786Z,9.90
2022-12-22T11:31:47.213Z,9.80
2022-12-22T11:34:33.636Z,9.80
2022-12-22T11:37:12.890Z,9.80
2022-12-22T11:39:45.241Z,9.70
2022-12-22T11:42:46.285Z,9.70
2022-12-22T11:45:42.710Z,9.80
2022-12-22T11:48:41.391Z,9.60
2022-12-22T11:51:27.129Z,9.60
2022-12-22T11:54:13.658Z,9.60
2022-12-22T11:56:43.881Z,9.60
2022-12-22T11:59:38.438Z,9.60
2022-12-22T12:02:45.707Z,9.60
2022-12-22T12:05:50.905Z,9.60
2022-12-22T12:08:32.043Z,9.50
2022-12-22T12:11:18.328Z,9.60
2022-12-22T12:13:55.517Z,9.60
2022-12-22T12:16:35.584Z,9.50
2022-12-22T12:19:44.167Z,9.60
2022-12-22T12:22:18.651Z,9.60
2022-12-22T12:25:01.392Z,9.60
2022-12-22T12:27:54.531Z,9.60
2022-12-22T12:30:40.320Z,9.60
2022-12-22T12:33:14.906Z,9.60
2022-12-22T12:35:51.670Z,9.60
2022-12-22T12:39:05.755Z,9.60
2022-12-22T12:41:25.792Z,9.60
2022-12-22T12:43:55.471Z,9.60
2022-12-22T12:46:47.638Z,9.60
2022-12-22T12:49:58.615Z,9.60
2022-12-22T12:53:05.141Z,9.60
2022-12-22T12:55:35.754Z,9.60
2022-12-22T12:58:07.066Z,9.60
2022-12-22T13:00:53.800Z,9.60
2022-12-22T13:06:51.958Z,9.70
2022-12-22T13:12:40.087Z,9.60
2022-12-22T13:15:31.653Z,9.60
2022-12-22T13:18:10.261Z,9.70
2022-12-22T13:20:42.529Z,9.70
2022-12-22T13:23:15.816Z,9.70
2022-12-22T13:25:50.877Z,9.70
2022-12-22T13:28:22.367Z,9.60
2022-12-22T13:30:58.163Z,9.60
2022-12-22T13:33:31.102Z,9.60
2022-12-22T13:36:04.243Z,9.60
2022-12-22T13:38:34.058Z,9.60
2022-12-22T13:41:05.525Z,9.50
2022-12-22T13:43:34.219Z,9.50
2022-12-22T13:46:05.978Z,9.50
2022-12-22T13:48:43.982Z,9.40
2022-12-22T13:51:19.743Z,9.40
2022-12-22T13:56:41.739Z,9.30
2022-12-22T13:59:22.578Z,9.40
2022-12-22T14:01:52.924Z,9.40
2022-12-22T14:04:21.417Z,9.30
2022-12-22T14:06:49.650Z,9.30
2022-12-22T14:09:19.622Z,9.30
2022-12-22T14:11:52.403Z,9.30
2022-12-22T14:14:26.759Z,9.20
2022-12-22T14:16:58.885Z,9.20
2022-12-22T14:19:29.215Z,9.10
2022-12-22T14:22:06.109Z,9.10
2022-12-22T14:24:39.542Z,9.10
2022-12-22T14:27:16.884Z,9.00
2022-12-22T14:29:46.405Z,9.00
2022-12-22T14:32:35.664Z,9.00
2022-12-22T14:35:03.959Z,9.00
2022-12-22T14:37:33.110Z,8.90
2022-12-22T14:40:01.669Z,8.90
2022-12-22T14:42:31.873Z,8.90
2022-12-22T14:45:00.265Z,8.90
2022-12-22T14:47:29.967Z,8.90
2022-12-22T14:50:01.010Z,8.90
2022-12-22T14:52:37.651Z,8.80
2022-12-22T14:55:19.264Z,8.80
2022-12-22T14:57:47.561Z,8.80
2022-12-22T15:00:31.451Z,8.80
2022-12-22T15:03:03.534Z,8.80
2022-12-22T15:05:35.324Z,8.80
2022-12-22T15:08:06.820Z,8.80
2022-12-22T15:10:40.865Z,8.80
2022-12-22T15:13:18.123Z,8.70
2022-12-22T15:15:46.294Z,8.70
2022-12-22T15:18:16.933Z,8.70
2022-12-22T15:20:45.282Z,8.70
2022-12-22T15:23:16.980Z,8.70
2022-12-22T15:25:45.835Z,8.70
2022-12-22T15:28:14.285Z,8.70
2022-12-22T15:30:43.094Z,8.70
2022-12-22T15:33:17.417Z,8.70
2022-12-22T15:35:46.281Z,8.70
2022-12-22T15:38:16.300Z,8.70
2022-12-22T15:40:44.774Z,8.60
2022-12-22T15:43:53.471Z,8.60
2022-12-22T15:46:03.372Z,8.50
2022-12-22T15:48:36.533Z,8.50
2022-12-22T15:51:07.219Z,8.50
2022-12-22T15:53:36.193Z,8.50
2022-12-22T15:56:04.796Z,8.50
2022-12-22T15:58:35.846Z,8.40
2022-12-22T16:01:05.806Z,8.40
2022-12-22T16:03:35.326Z,8.40
2022-12-22T16:06:03.744Z,8.50
2022-12-22T16:08:37.010Z,8.50
2022-12-22T16:11:05.575Z,8.50
2022-12-22T16:13:33.687Z,8.50
2022-12-22T16:16:02.117Z,8.50
2022-12-22T16:18:30.309Z,8.50
2022-12-22T16:21:07.860Z,8.50
2022-12-22T16:23:36.899Z,8.50
2022-12-22T16:26:05.945Z,8.50
2022-12-22T16:28:34.219Z,8.50
2022-12-22T16:31:02.625Z,8.50
2022-12-22T16:33:30.772Z,8.50
2022-12-22T16:36:00.207Z,8.50
2022-12-22T16:38:28.261Z,8.50
2022-12-22T16:40:56.375Z,8.50
2022-12-22T16:46:18.191Z,8.50
2022-12-22T16:48:48.946Z,8.40
2022-12-22T16:51:22.381Z,8.40
2022-12-22T16:53:50.521Z,8.40
2022-12-22T16:56:21.196Z,8.40
2022-12-22T16:58:49.725Z,8.40
2022-12-22T17:01:35.177Z,8.30
2022-12-22T17:04:07.624Z,8.30
2022-12-22T17:06:38.146Z,8.30
2022-12-22T17:09:08.561Z,8.30
2022-12-22T17:11:37.421Z,8.40
2022-12-22T17:14:16.413Z,8.30
2022-12-22T17:16:46.843Z,8.30
2022-12-22T17:19:15.168Z,8.20
2022-12-22T17:21:44.750Z,8.20
2022-12-22T17:24:15.895Z,8.20
2022-12-22T17:26:44.412Z,8.30
2022-12-22T17:29:15.924Z,8.30
2022-12-22T17:31:44.062Z,8.30
2022-12-22T17:34:16.535Z,8.30
2022-12-22T17:36:48.471Z,8.30
2022-12-22T17:39:19.298Z,8.30
2022-12-22T17:41:52.239Z,8.30
2022-12-22T17:44:26.035Z,8.20
2022-12-22T17:46:54.491Z,8.20
2022-12-22T17:49:23.239Z,8.20
2022-12-22T17:51:52.879Z,8.10
2022-12-22T17:54:24.016Z,8.10
2022-12-22T17:56:52.423Z,8.10
2022-12-22T17:59:20.497Z,8.10
2022-12-22T18:01:48.686Z,8.10
2022-12-22T18:04:16.967Z,8.10
2022-12-22T18:06:45.529Z,8.10
2022-12-22T18:09:21.730Z,8.10
2022-12-22T18:11:49.996Z,8.10
2022-12-22T18:14:18.413Z,8.10
2022-12-22T18:16:46.579Z,8.00
2022-12-22T18:19:14.714Z,8.00
2022-12-22T18:21:43.014Z,8.00
2022-12-22T18:24:18.170Z,8.00
2022-12-22T18:26:47.106Z,8.10
2022-12-22T18:29:16.007Z,8.10
2022-12-22T18:31:44.665Z,8.10
2022-12-22T18:34:13.031Z,8.10
2022-12-22T18:36:44.181Z,8.10
2022-12-22T18:39:20.339Z,8.10
2022-12-22T18:41:48.897Z,8.10
2022-12-22T18:44:18.207Z,8.10
2022-12-22T18:46:46.817Z,8.20
2022-12-22T18:49:15.598Z,8.20
2022-12-22T18:51:44.087Z,8.30
2022-12-22T18:54:25.664Z,8.40
2022-12-22T18:56:53.827Z,8.40
2022-12-22T18:59:24.975Z,8.40
2022-12-22T19:01:53.337Z,8.40
2022-12-22T19:04:21.808Z,8.40
2022-12-22T19:06:49.866Z,8.40
2022-12-22T19:09:17.963Z,8.50
2022-12-22T19:11:47.875Z,8.50
2022-12-22T19:14:19.417Z,8.50
2022-12-22T19:16:48.023Z,8.50
2022-12-22T19:22:08.093Z,8.50
2022-12-22T19:30:40.487Z,8.50
2022-12-22T19:51:22.696Z,8.60
2022-12-22T19:53:50.863Z,8.60
2022-12-22T19:56:25.171Z,8.60
2022-12-22T19:58:55.217Z,8.60
2022-12-22T20:01:23.700Z,8.60
2022-12-22T20:03:51.915Z,8.60
2022-12-22T20:06:20.077Z,8.60
2022-12-22T20:08:49.678Z,8.60
2022-12-22T20:11:20.460Z,8.60
2022-12-22T20:13:49.069Z,8.60
2022-12-22T20:16:18.362Z,8.60
2022-12-22T20:18:47.352Z,8.50
2022-12-22T20:21:19.103Z,8.60
2022-12-22T20:23:48.265Z,8.60
2022-12-22T20:26:21.174Z,8.60
2022-12-22T20:28:49.908Z,8.60
2022-12-22T20:31:20.016Z,8.60
2022-12-22T20:33:48.279Z,8.60
2022-12-22T20:36:22.903Z,8.60
2022-12-22T20:38:53.293Z,8.60
2022-12-22T20:41:23.174Z,8.60
2022-12-22T20:43:51.915Z,8.60
2022-12-22T20:46:22.417Z,8.60
2022-12-22T20:48:52.535Z,8.60
2022-12-22T20:51:21.780Z,8.60
2022-12-22T20:53:50.654Z,8.60
2022-12-22T20:56:24.132Z,8.60
2022-12-22T20:58:52.553Z,8.60
2022-12-22T21:01:20.807Z,8.60
2022-12-22T21:03:49.101Z,8.60
2022-12-22T21:06:25.936Z,8.60
2022-12-22T21:08:55.261Z,8.60
2022-12-22T21:11:25.459Z,8.60
2022-12-22T21:13:54.034Z,8.60
2022-12-22T21:16:24.197Z,8.60
2022-12-22T21:18:53.390Z,8.60
2022-12-22T21:21:21.967Z,8.60
2022-12-22T21:23:51.270Z,8.70
2022-12-22T21:26:23.959Z,8.70
2022-12-22T21:28:54.141Z,8.70
2022-12-22T21:31:22.631Z,8.70
2022-12-22T21:33:53.877Z,8.70
2022-12-22T21:36:24.834Z,8.70
2022-12-22T21:38:57.138Z,8.70
2022-12-22T21:41:45.781Z,8.70
2022-12-22T21:44:15.482Z,8.60
2022-12-22T21:46:45.882Z,8.60
2022-12-22T21:49:19.722Z,8.60
2022-12-22T21:51:47.998Z,8.60
2022-12-22T21:54:16.118Z,8.60
2022-12-22T21:56:44.681Z,8.60
2022-12-22T21:59:14.240Z,8.60
2022-12-22T22:01:43.361Z,8.60
2022-12-22T22:04:12.130Z,8.60
2022-12-22T22:06:40.425Z,8.60
2022-12-22T22:09:09.111Z,8.60
2022-12-22T22:12:00.234Z,8.60
2022-12-22T22:14:29.836Z,8.60
2022-12-22T22:16:57.963Z,8.60
2022-12-22T22:19:26.201Z,8.60
2022-12-22T22:21:54.492Z,8.60
2022-12-22T22:24:22.747Z,8.60
2022-12-22T22:26:51.753Z,8.70
2022-12-22T22:29:20.157Z,8.70
2022-12-22T22:31:49.977Z,8.60
2022-12-22T22:34:18.338Z,8.70
2022-12-22T22:36:46.885Z,8.60
2022-12-22T22:39:15.481Z,8.60
2022-12-22T22:41:44.055Z,8.60
2022-12-22T22:44:12.647Z,8.60
2022-12-22T22:46:42.063Z,8.60
2022-12-22T22:49:12.055Z,8.60
2022-12-22T22:51:40.695Z,8.60
2022-12-22T22:54:11.280Z,8.60
2022-12-22T22:56:40.386Z,8.60
2022-12-22T22:59:09.900Z,8.60
2022-12-22T23:01:39.838Z,8.60
2022-12-22T23:04:08.521Z,8.60
2022-12-22T23:06:40.419Z,8.60
2022-12-22T23:09:08.776Z,8.60
2022-12-22T23:11:37.433Z,8.50
2022-12-22T23:14:06.545Z,8.50
2022-12-22T23:16:38.392Z,8.50
2022-12-22T23:19:08.190Z,8.60
2022-12-22T23:21:37.694Z,8.60
2022-12-22T23:24:06.830Z,8.60
2022-12-22T23:26:35.534Z,8.60
2022-12-22T23:29:04.208Z,8.60
2022-12-22T23:31:33.470Z,8.60
2022-12-22T23:34:02.082Z,8.60
2022-12-22T23:36:31.647Z,8.60
2022-12-22T23:39:01.483Z,8.60
2022-12-22T23:41:30.273Z,8.60
2022-12-22T23:43:58.663Z,8.60
2022-12-22T23:46:27.296Z,8.70
2022-12-22T23:48:57.744Z,8.70
2022-12-22T23:51:28.202Z,8.70
2022-12-22T23:53:57.166Z,8.80
2022-12-22T23:56:27.077Z,8.90
2022-12-22T23:58:55.415Z,8.90
